createdAt,value
2022-11-22T00:00:13.358Z,0.00
2022-11-22T00:01:13.286Z,0.00
2022-11-22T00:02:13.505Z,0.00
2022-11-22T00:03:13.429Z,0.00
2022-11-22T00:04:13.434Z,0.00
2022-11-22T00:05:13.738Z,0.00
2022-11-22T00:06:13.685Z,0.00
2022-11-22T00:07:13.788Z,0.00
2022-11-22T00:08:14.186Z,0.00
2022-11-22T00:09:13.540Z,0.00
2022-11-22T00:10:13.658Z,0.00
2022-11-22T00:11:14.723Z,0.00
2022-11-22T00:12:13.647Z,0.00
2022-11-22T00:13:13.523Z,0.00
2022-11-22T00:14:13.843Z,0.00
2022-11-22T00:15:13.997Z,0.00
2022-11-22T00:16:13.975Z,0.00
2022-11-22T00:17:12.814Z,0.00
2022-11-22T00:18:13.895Z,0.00
2022-11-22T00:19:12.796Z,0.00
2022-11-22T00:20:13.709Z,0.00
2022-11-22T00:21:14.140Z,0.00
2022-11-22T00:22:13.250Z,0.00
2022-11-22T00:23:13.255Z,0.00
2022-11-22T00:24:13.160Z,0.00
2022-11-22T00:25:12.991Z,0.00
2022-11-22T00:26:13.042Z,0.00
2022-11-22T00:27:12.928Z,0.00
2022-11-22T00:28:13.424Z,0.00
2022-11-22T00:29:13.320Z,0.00
2022-11-22T00:30:13.310Z,0.00
2022-11-22T00:31:13.493Z,0.00
2022-11-22T00:32:13.800Z,0.00
2022-11-22T00:33:14.198Z,0.00
2022-11-22T00:34:13.622Z,0.00
2022-11-22T00:35:13.662Z,0.00
2022-11-22T00:36:13.698Z,0.00
2022-11-22T00:37:14.149Z,0.00
2022-11-22T00:38:13.329Z,0.00
2022-11-22T00:39:13.592Z,0.00
2022-11-22T00:40:13.627Z,0.00
2022-11-22T00:41:13.777Z,0.00
2022-11-22T00:42:14.024Z,0.00
2022-11-22T00:43:13.252Z,0.00
2022-11-22T00:44:13.357Z,0.00
2022-11-22T00:45:13.280Z,0.00
2022-11-22T00:46:13.535Z,0.00
2022-11-22T00:47:13.698Z,0.00
2022-11-22T00:48:13.617Z,0.00
2022-11-22T00:49:13.494Z,0.00
2022-11-22T00:50:13.597Z,0.00
2022-11-22T00:51:13.706Z,0.00
2022-11-22T00:52:13.535Z,0.00
2022-11-22T00:53:13.751Z,0.00
2022-11-22T00:54:13.783Z,0.00
2022-11-22T00:55:13.702Z,0.00
2022-11-22T00:56:13.657Z,0.00
2022-11-22T00:57:13.716Z,0.00
2022-11-22T00:58:13.758Z,0.00
2022-11-22T00:59:14.050Z,0.00
2022-11-22T01:00:13.155Z,0.00
2022-11-22T01:01:14.566Z,0.00
2022-11-22T01:02:13.550Z,0.00
2022-11-22T01:03:13.602Z,0.00
2022-11-22T01:04:13.433Z,0.00
2022-11-22T01:05:13.333Z,0.00
2022-11-22T01:06:13.229Z,0.00
2022-11-22T01:07:13.375Z,0.00
2022-11-22T01:08:13.384Z,0.00
2022-11-22T01:09:13.253Z,0.00
2022-11-22T01:10:13.326Z,0.00
2022-11-22T01:11:13.507Z,0.00
2022-11-22T01:12:13.658Z,0.00
2022-11-22T01:13:13.702Z,0.00
2022-11-22T01:14:13.831Z,0.00
2022-11-22T01:15:13.672Z,0.00
2022-11-22T01:16:13.531Z,0.00
2022-11-22T01:17:13.460Z,0.00
2022-11-22T01:18:13.444Z,0.00
2022-11-22T01:19:13.585Z,0.00
2022-11-22T01:20:14.136Z,0.00
2022-11-22T01:21:13.078Z,0.00
2022-11-22T01:22:13.005Z,0.00
2022-11-22T01:23:13.083Z,0.00
2022-11-22T01:24:13.071Z,0.00
2022-11-22T01:25:12.960Z,0.00
2022-11-22T01:26:13.069Z,0.00
2022-11-22T01:27:13.478Z,0.00
2022-11-22T01:28:13.596Z,0.00
2022-11-22T01:29:13.921Z,0.00
2022-11-22T01:30:13.080Z,0.00
2022-11-22T01:31:12.965Z,0.00
2022-11-22T01:32:12.987Z,0.00
2022-11-22T01:33:12.984Z,0.00
2022-11-22T01:34:12.978Z,0.00
2022-11-22T01:35:13.053Z,0.00
2022-11-22T01:36:17.987Z,0.00
2022-11-22T01:37:13.039Z,0.00
2022-11-22T01:38:12.943Z,0.00
2022-11-22T01:39:13.276Z,0.00
2022-11-22T01:40:13.604Z,0.00
2022-11-22T01:41:13.609Z,0.00
2022-11-22T01:42:13.554Z,0.00
2022-11-22T01:43:13.418Z,0.00
2022-11-22T01:44:13.536Z,0.00
2022-11-22T01:45:13.514Z,0.00
2022-11-22T01:46:13.458Z,0.00
2022-11-22T01:47:13.372Z,0.00
2022-11-22T01:48:13.480Z,0.00
2022-11-22T01:49:13.418Z,0.00
2022-11-22T01:50:13.337Z,0.00
2022-11-22T01:51:13.403Z,0.00
2022-11-22T01:52:13.672Z,0.00
2022-11-22T01:53:13.589Z,0.00
2022-11-22T01:54:13.814Z,0.00
2022-11-22T01:55:13.719Z,0.00
2022-11-22T01:56:13.590Z,0.00
2022-11-22T01:57:13.466Z,0.00
2022-11-22T01:58:13.691Z,0.00
2022-11-22T01:59:19.573Z,0.00
2022-11-22T02:00:13.448Z,0.00
2022-11-22T02:01:13.655Z,0.00
2022-11-22T02:02:13.694Z,0.00
2022-11-22T02:03:19.016Z,0.00
2022-11-22T02:04:13.044Z,0.00
2022-11-22T02:05:12.929Z,0.00
2022-11-22T02:06:13.356Z,0.00
2022-11-22T02:07:13.451Z,0.00
2022-11-22T02:08:13.679Z,0.00
2022-11-22T02:09:14.042Z,0.00
2022-11-22T02:10:12.919Z,0.00
2022-11-22T02:11:13.175Z,0.00
2022-11-22T02:12:13.454Z,0.00
2022-11-22T02:13:13.329Z,0.00
2022-11-22T02:14:13.577Z,0.00
2022-11-22T02:15:13.439Z,0.00
2022-11-22T02:16:13.373Z,0.00
2022-11-22T02:17:13.332Z,0.00
2022-11-22T02:18:13.369Z,0.00
2022-11-22T02:19:13.440Z,0.00
2022-11-22T02:20:13.337Z,0.00
2022-11-22T02:21:13.403Z,0.00
2022-11-22T02:22:13.500Z,0.00
2022-11-22T02:23:13.703Z,0.00
2022-11-22T02:24:14.178Z,0.00
2022-11-22T02:25:13.042Z,0.00
2022-11-22T02:26:13.114Z,0.00
2022-11-22T02:27:13.122Z,0.00
2022-11-22T02:28:13.477Z,0.00
2022-11-22T02:29:13.734Z,0.00
2022-11-22T02:30:13.645Z,0.00
2022-11-22T02:31:13.517Z,0.00
2022-11-22T02:32:13.321Z,0.00
2022-11-22T02:33:13.350Z,0.00
2022-11-22T02:34:13.543Z,0.00
2022-11-22T02:35:13.687Z,0.00
2022-11-22T02:36:13.941Z,0.00
2022-11-22T02:37:12.950Z,0.00
2022-11-22T02:38:12.844Z,0.00
2022-11-22T02:39:13.749Z,0.00
2022-11-22T02:40:13.699Z,0.00
2022-11-22T02:41:13.914Z,0.00
2022-11-22T02:42:12.998Z,0.00
2022-11-22T02:43:12.937Z,0.00
2022-11-22T02:44:13.036Z,0.00
2022-11-22T02:45:13.160Z,0.00
2022-11-22T02:46:13.090Z,0.00
2022-11-22T02:47:13.265Z,0.00
2022-11-22T02:48:13.161Z,0.00
2022-11-22T02:49:13.503Z,0.00
2022-11-22T02:50:13.514Z,0.00
2022-11-22T02:51:13.461Z,0.00
2022-11-22T02:52:13.642Z,0.00
2022-11-22T02:53:13.560Z,0.00
2022-11-22T02:54:13.722Z,0.00
2022-11-22T02:55:13.821Z,0.00
2022-11-22T02:56:13.906Z,0.00
2022-11-22T02:57:13.221Z,0.00
2022-11-22T02:58:13.464Z,0.00
2022-11-22T02:59:13.263Z,0.00
2022-11-22T03:00:13.187Z,0.00
2022-11-22T03:01:13.133Z,0.00
2022-11-22T03:02:13.086Z,0.00
2022-11-22T03:03:13.154Z,0.00
2022-11-22T03:04:13.489Z,0.00
2022-11-22T03:05:18.714Z,0.00
2022-11-22T03:06:13.739Z,0.00
2022-11-22T03:07:13.618Z,0.00
2022-11-22T03:08:13.902Z,0.00
2022-11-22T03:09:12.702Z,0.00
2022-11-22T03:10:13.649Z,0.00
2022-11-22T03:11:13.553Z,0.00
2022-11-22T03:12:13.474Z,0.00
2022-11-22T03:13:13.387Z,0.00
2022-11-22T03:14:13.294Z,0.00
2022-11-22T03:15:13.195Z,0.00
2022-11-22T03:16:13.411Z,0.00
2022-11-22T03:17:13.584Z,0.00
2022-11-22T03:18:13.668Z,0.00
2022-11-22T03:19:13.888Z,0.00
2022-11-22T03:20:12.793Z,0.00
2022-11-22T03:21:13.838Z,0.00
2022-11-22T03:22:13.743Z,0.00
2022-11-22T03:23:13.749Z,0.00
2022-11-22T03:24:13.836Z,0.00
2022-11-22T03:25:13.792Z,0.00
2022-11-22T03:26:13.869Z,0.00
2022-11-22T03:27:14.254Z,0.00
2022-11-22T03:28:13.501Z,0.00
2022-11-22T03:29:13.489Z,0.00
2022-11-22T03:30:13.524Z,0.00
2022-11-22T03:31:13.684Z,0.00
2022-11-22T03:32:13.863Z,0.00
2022-11-22T03:33:13.922Z,0.00
2022-11-22T03:34:13.069Z,0.00
2022-11-22T03:35:12.975Z,0.00
2022-11-22T03:36:12.981Z,0.00
2022-11-22T03:37:13.127Z,0.00
2022-11-22T03:38:12.953Z,0.00
2022-11-22T03:39:12.945Z,0.00
2022-11-22T03:40:12.926Z,0.00
2022-11-22T03:41:13.236Z,0.00
2022-11-22T03:42:16.817Z,0.00
2022-11-22T03:43:13.409Z,0.00
2022-11-22T03:44:13.335Z,0.00
2022-11-22T03:45:13.262Z,0.00
2022-11-22T03:46:13.552Z,0.00
2022-11-22T03:47:13.484Z,0.00
2022-11-22T03:48:13.305Z,0.00
2022-11-22T03:49:13.193Z,0.00
2022-11-22T03:50:12.991Z,0.00
2022-11-22T03:51:12.853Z,0.00
2022-11-22T03:52:13.907Z,0.00
2022-11-22T03:53:13.201Z,0.00
2022-11-22T03:54:13.103Z,0.00
2022-11-22T03:55:13.093Z,0.00
2022-11-22T03:56:13.436Z,0.00
2022-11-22T03:57:13.778Z,0.00
2022-11-22T03:58:13.941Z,0.00
2022-11-22T03:59:12.985Z,0.00
2022-11-22T04:00:13.374Z,0.00
2022-11-22T04:01:16.764Z,0.00
2022-11-22T04:02:12.989Z,0.00
2022-11-22T04:03:12.982Z,0.00
2022-11-22T04:04:13.082Z,0.00
2022-11-22T04:05:13.027Z,0.00
2022-11-22T04:06:13.074Z,0.00
2022-11-22T04:07:13.205Z,0.00
2022-11-22T04:08:13.650Z,0.00
2022-11-22T04:09:13.597Z,0.00
2022-11-22T04:10:16.351Z,0.00
2022-11-22T04:11:12.952Z,0.00
2022-11-22T04:12:12.850Z,0.00
2022-11-22T04:13:13.756Z,0.00
2022-11-22T04:14:13.675Z,0.00
2022-11-22T04:15:13.575Z,0.00
2022-11-22T04:16:13.404Z,0.00
2022-11-22T04:17:13.509Z,0.00
2022-11-22T04:18:13.568Z,0.00
2022-11-22T04:19:13.528Z,0.00
2022-11-22T04:20:13.461Z,0.00
2022-11-22T04:21:13.622Z,0.00
2022-11-22T04:22:13.768Z,0.00
2022-11-22T04:23:13.953Z,0.00
2022-11-22T04:24:12.923Z,0.00
2022-11-22T04:25:12.779Z,0.00
2022-11-22T04:26:13.830Z,0.00
2022-11-22T04:27:13.649Z,0.00
2022-11-22T04:28:13.553Z,0.00
2022-11-22T04:29:13.606Z,0.00
2022-11-22T04:30:18.957Z,0.00
2022-11-22T04:31:13.390Z,0.00
2022-11-22T04:32:13.220Z,0.00
2022-11-22T04:33:13.189Z,0.00
2022-11-22T04:34:13.095Z,0.00
2022-11-22T04:35:13.027Z,0.00
2022-11-22T04:36:17.876Z,0.00
2022-11-22T04:37:13.826Z,0.00
2022-11-22T04:38:13.768Z,0.00
2022-11-22T04:39:13.694Z,0.00
2022-11-22T04:40:13.850Z,0.00
2022-11-22T04:41:14.071Z,0.00
2022-11-22T04:42:12.974Z,0.00
2022-11-22T04:43:13.152Z,0.00
2022-11-22T04:44:13.086Z,0.00
2022-11-22T04:45:13.407Z,0.00
2022-11-22T04:46:13.285Z,0.00
2022-11-22T04:47:13.299Z,0.00
2022-11-22T04:48:13.287Z,0.00
2022-11-22T04:49:14.455Z,0.00
2022-11-22T04:50:13.555Z,0.00
2022-11-22T04:51:13.616Z,0.00
2022-11-22T04:52:13.573Z,0.00
2022-11-22T04:53:13.593Z,0.00
2022-11-22T04:54:13.821Z,0.00
2022-11-22T04:55:13.849Z,0.00
2022-11-22T04:56:15.099Z,0.00
2022-11-22T04:57:13.227Z,0.00
2022-11-22T04:58:13.343Z,0.00
2022-11-22T04:59:13.649Z,0.00
2022-11-22T05:00:13.589Z,0.00
2022-11-22T05:01:13.614Z,0.00
2022-11-22T05:02:13.867Z,0.00
2022-11-22T05:03:13.757Z,0.00
2022-11-22T05:04:13.878Z,0.00
2022-11-22T05:05:14.005Z,0.00
2022-11-22T05:06:12.897Z,0.00
2022-11-22T05:07:13.070Z,0.00
2022-11-22T05:08:13.533Z,0.00
2022-11-22T05:09:13.489Z,0.00
2022-11-22T05:10:13.376Z,0.00
2022-11-22T05:11:13.288Z,0.00
2022-11-22T05:12:13.207Z,0.00
2022-11-22T05:13:13.425Z,0.00
2022-11-22T05:14:13.768Z,0.00
2022-11-22T05:15:14.069Z,0.00
2022-11-22T05:16:13.058Z,0.00
2022-11-22T05:17:13.728Z,0.00
2022-11-22T05:18:13.224Z,0.00
2022-11-22T05:19:13.421Z,0.00
2022-11-22T05:20:13.626Z,0.00
2022-11-22T05:21:13.515Z,0.00
2022-11-22T05:22:13.506Z,0.00
2022-11-22T05:23:13.598Z,0.00
2022-11-22T05:24:13.458Z,0.00
2022-11-22T05:25:13.500Z,0.00
2022-11-22T05:26:13.387Z,0.00
2022-11-22T05:27:13.329Z,0.00
2022-11-22T05:28:13.210Z,0.00
2022-11-22T05:29:13.339Z,0.00
2022-11-22T05:30:28.280Z,0.00
2022-11-22T05:31:13.284Z,0.00
2022-11-22T05:32:13.252Z,0.00
2022-11-22T05:33:13.408Z,0.00
2022-11-22T05:34:13.407Z,0.00
2022-11-22T05:35:13.412Z,0.00
2022-11-22T05:36:13.265Z,0.00
2022-11-22T05:37:13.264Z,0.00
2022-11-22T05:38:13.420Z,0.00
2022-11-22T05:39:13.427Z,0.00
2022-11-22T05:40:13.439Z,0.00
2022-11-22T05:41:33.738Z,0.00
2022-11-22T05:42:13.979Z,0.00
2022-11-22T05:43:12.906Z,0.00
2022-11-22T05:44:13.023Z,0.00
2022-11-22T05:45:12.972Z,0.00
2022-11-22T05:46:13.032Z,0.00
2022-11-22T05:47:12.989Z,0.00
2022-11-22T05:48:12.996Z,0.00
2022-11-22T05:49:12.960Z,0.00
2022-11-22T05:50:12.776Z,0.00
2022-11-22T05:51:14.325Z,0.00
2022-11-22T05:52:13.340Z,0.00
2022-11-22T05:53:13.680Z,0.00
2022-11-22T05:54:13.479Z,0.00
2022-11-22T05:55:13.514Z,0.00
2022-11-22T05:56:13.703Z,0.00
2022-11-22T05:57:13.607Z,0.00
2022-11-22T05:58:13.689Z,0.00
2022-11-22T05:59:13.949Z,0.00
2022-11-22T06:00:13.130Z,0.00
2022-11-22T06:01:13.414Z,0.00
2022-11-22T06:02:13.762Z,0.00
2022-11-22T06:03:14.163Z,0.00
2022-11-22T06:04:13.343Z,0.00
2022-11-22T06:05:13.274Z,0.00
2022-11-22T06:06:13.319Z,0.00
2022-11-22T06:07:13.559Z,0.00
2022-11-22T06:08:13.685Z,0.00
2022-11-22T06:09:13.692Z,0.00
2022-11-22T06:10:13.593Z,0.00
2022-11-22T06:11:13.479Z,0.00
2022-11-22T06:12:13.566Z,0.00
2022-11-22T06:13:13.377Z,0.00
2022-11-22T06:14:13.315Z,0.00
2022-11-22T06:15:13.405Z,0.00
2022-11-22T06:16:13.677Z,0.00
2022-11-22T06:17:14.055Z,0.00
2022-11-22T06:18:12.965Z,0.00
2022-11-22T06:19:12.906Z,0.00
2022-11-22T06:20:12.779Z,0.00
2022-11-22T06:21:14.054Z,0.00
2022-11-22T06:22:13.086Z,0.77
2022-11-22T06:23:13.373Z,0.77
2022-11-22T06:24:13.547Z,0.77
2022-11-22T06:25:13.724Z,0.77
2022-11-22T06:26:14.076Z,1.53
2022-11-22T06:27:13.406Z,1.53
2022-11-22T06:28:13.250Z,2.29
2022-11-22T06:29:13.193Z,2.29
2022-11-22T06:30:23.263Z,3.06
2022-11-22T06:31:13.413Z,3.82
2022-11-22T06:32:13.351Z,4.59
2022-11-22T06:33:13.282Z,6.12
2022-11-22T06:34:13.285Z,6.88
2022-11-22T06:35:13.119Z,8.41
2022-11-22T06:36:13.472Z,10.71
2022-11-22T06:37:13.804Z,12.24
2022-11-22T06:38:13.719Z,13.77
2022-11-22T06:39:13.724Z,16.83
2022-11-22T06:40:13.566Z,19.89
2022-11-22T06:41:13.507Z,24.48
2022-11-22T06:42:13.519Z,27.54
2022-11-22T06:43:13.367Z,30.60
2022-11-22T06:44:13.445Z,36.72
2022-11-22T06:45:13.451Z,42.84
2022-11-22T06:46:13.860Z,48.96
2022-11-22T06:47:14.193Z,55.08
2022-11-22T06:48:13.034Z,61.20
2022-11-22T06:49:12.974Z,67.32
2022-11-22T06:50:16.264Z,79.56
2022-11-22T06:51:13.498Z,85.68
2022-11-22T06:52:13.818Z,97.92
2022-11-22T06:53:39.422Z,110.16
2022-11-22T06:54:13.067Z,122.40
2022-11-22T06:55:42.278Z,122.40
2022-11-22T06:56:13.285Z,134.64
2022-11-22T06:57:13.163Z,159.12
2022-11-22T06:58:13.116Z,171.36
2022-11-22T06:59:13.152Z,183.60
2022-11-22T07:00:13.109Z,195.84
2022-11-22T07:01:13.337Z,195.84
2022-11-22T07:02:13.196Z,220.32
2022-11-22T07:03:13.146Z,244.80
2022-11-22T07:04:13.317Z,244.80
2022-11-22T07:05:25.487Z,269.28
2022-11-22T07:06:13.095Z,293.76
2022-11-22T07:07:13.265Z,318.24
2022-11-22T07:08:14.166Z,318.24
2022-11-22T07:09:13.484Z,342.72
2022-11-22T07:10:13.480Z,367.20
2022-11-22T07:11:13.786Z,367.20
2022-11-22T07:12:13.956Z,391.68
2022-11-22T07:13:12.926Z,391.68
2022-11-22T07:14:12.920Z,440.64
2022-11-22T07:15:12.839Z,440.64
2022-11-22T07:16:13.813Z,440.64
2022-11-22T07:17:13.903Z,489.60
2022-11-22T07:18:12.822Z,489.60
2022-11-22T07:19:13.753Z,538.56
2022-11-22T07:20:14.046Z,538.56
2022-11-22T07:21:13.792Z,587.52
2022-11-22T07:22:12.935Z,587.52
2022-11-22T07:23:12.959Z,587.52
2022-11-22T07:24:12.890Z,636.48
2022-11-22T07:25:14.117Z,636.48
2022-11-22T07:26:13.294Z,636.48
2022-11-22T07:27:13.397Z,685.44
2022-11-22T07:28:13.517Z,685.44
2022-11-22T07:29:13.332Z,734.40
2022-11-22T07:30:13.290Z,734.40
2022-11-22T07:31:13.291Z,783.36
2022-11-22T07:32:13.181Z,783.36
2022-11-22T07:33:13.101Z,783.36
2022-11-22T07:34:13.120Z,881.28
2022-11-22T07:35:13.105Z,881.28
2022-11-22T07:36:13.248Z,979.20
2022-11-22T07:37:14.091Z,979.20
2022-11-22T07:38:13.352Z,1077.12
2022-11-22T07:39:13.156Z,1175.04
2022-11-22T07:40:13.214Z,1175.04
2022-11-22T07:41:13.372Z,1272.96
2022-11-22T07:42:13.361Z,1272.96
2022-11-22T07:43:13.401Z,1272.96
2022-11-22T07:44:13.338Z,1272.96
2022-11-22T07:45:13.276Z,1272.96
2022-11-22T07:46:13.488Z,1370.88
2022-11-22T07:47:15.254Z,1370.88
2022-11-22T07:48:13.335Z,1468.80
2022-11-22T07:49:13.452Z,1566.72
2022-11-22T07:50:13.716Z,1566.72
2022-11-22T07:51:13.657Z,1566.72
2022-11-22T07:52:13.569Z,1762.56
2022-11-22T07:53:13.435Z,1762.56
2022-11-22T07:54:13.235Z,1762.56
2022-11-22T07:55:14.452Z,1958.40
2022-11-22T07:56:13.776Z,1958.40
2022-11-22T07:57:13.597Z,2154.24
2022-11-22T07:58:13.581Z,2154.24
2022-11-22T07:59:13.670Z,2154.24
2022-11-22T08:00:13.594Z,2154.24
2022-11-22T08:01:13.596Z,2350.08
2022-11-22T08:02:13.917Z,2350.08
2022-11-22T08:03:17.621Z,2350.08
2022-11-22T08:04:13.067Z,2545.92
2022-11-22T08:05:13.199Z,2545.92
2022-11-22T08:06:13.399Z,2545.92
2022-11-22T08:07:13.642Z,2545.92
2022-11-22T08:08:13.702Z,2545.92
2022-11-22T08:09:13.572Z,2350.08
2022-11-22T08:10:13.637Z,2350.08
2022-11-22T08:11:13.560Z,2350.08
2022-11-22T08:12:13.602Z,2154.24
2022-11-22T08:13:13.553Z,2154.24
2022-11-22T08:14:23.300Z,2350.08
2022-11-22T08:15:13.221Z,2154.24
2022-11-22T08:16:13.839Z,2154.24
2022-11-22T08:17:13.892Z,2154.24
2022-11-22T08:18:13.180Z,2154.24
2022-11-22T08:19:13.789Z,2154.24
2022-11-22T08:20:13.786Z,1958.40
2022-11-22T08:21:14.142Z,2154.24
2022-11-22T08:22:13.185Z,2154.24
2022-11-22T08:23:13.281Z,2154.24
2022-11-22T08:24:13.212Z,2154.24
2022-11-22T08:25:13.136Z,2154.24
2022-11-22T08:26:13.136Z,2350.08
2022-11-22T08:27:13.241Z,2350.08
2022-11-22T08:28:13.143Z,2350.08
2022-11-22T08:29:14.469Z,2350.08
2022-11-22T08:30:13.663Z,2545.92
2022-11-22T08:31:13.609Z,2545.92
2022-11-22T08:32:13.441Z,2545.92
2022-11-22T08:33:13.372Z,2741.76
2022-11-22T08:34:13.939Z,2741.76
2022-11-22T08:35:12.815Z,2741.76
2022-11-22T08:36:13.799Z,2741.76
2022-11-22T08:37:13.922Z,2741.76
2022-11-22T08:38:12.869Z,2937.60
2022-11-22T08:39:14.131Z,2937.60
2022-11-22T08:40:18.559Z,2741.76
2022-11-22T08:41:13.844Z,2741.76
2022-11-22T08:42:13.805Z,2741.76
2022-11-22T08:43:14.091Z,2741.76
2022-11-22T08:44:13.153Z,2741.76
2022-11-22T08:45:12.977Z,2741.76
2022-11-22T08:46:12.844Z,2545.92
2022-11-22T08:47:14.090Z,2545.92
2022-11-22T08:48:16.435Z,2741.76
2022-11-22T08:49:13.577Z,2741.76
2022-11-22T08:50:14.025Z,2741.76
2022-11-22T08:51:13.377Z,2741.76
2022-11-22T08:52:13.589Z,2937.60
2022-11-22T08:53:13.799Z,2937.60
2022-11-22T08:54:13.762Z,3133.44
2022-11-22T08:55:13.675Z,3133.44
2022-11-22T08:56:13.574Z,3133.44
2022-11-22T08:57:13.900Z,3133.44
2022-11-22T08:58:13.015Z,3133.44
2022-11-22T08:59:13.063Z,3133.44
2022-11-22T09:00:13.232Z,3133.44
2022-11-22T09:01:13.327Z,3133.44
2022-11-22T09:02:13.428Z,2937.60
2022-11-22T09:03:13.437Z,2937.60
2022-11-22T09:04:13.634Z,2937.60
2022-11-22T09:05:14.027Z,2937.60
2022-11-22T09:08:26.612Z,2937.60
2022-11-22T09:09:36.990Z,2937.60
2022-11-22T09:10:12.943Z,2937.60
2022-11-22T09:11:12.833Z,2937.60
2022-11-22T09:12:13.837Z,2937.60
2022-11-22T09:13:13.730Z,2937.60
2022-11-22T09:14:13.950Z,2937.60
2022-11-22T09:15:12.903Z,2937.60
2022-11-22T09:16:13.088Z,2937.60
2022-11-22T09:17:17.559Z,3133.44
2022-11-22T09:18:13.375Z,4308.48
2022-11-22T09:19:13.349Z,5483.52
2022-11-22T09:20:13.352Z,6266.88
2022-11-22T09:21:13.261Z,7050.24
2022-11-22T09:22:13.214Z,7833.60
2022-11-22T09:23:13.120Z,7050.24
2022-11-22T09:24:13.410Z,7833.60
2022-11-22T09:25:13.741Z,7050.24
2022-11-22T09:26:13.689Z,7833.60
2022-11-22T09:27:13.613Z,8616.96
2022-11-22T09:28:13.854Z,7833.60
2022-11-22T09:29:13.728Z,8616.96
2022-11-22T09:30:13.670Z,7833.60
2022-11-22T09:31:13.551Z,10183.68
2022-11-22T09:32:13.623Z,8616.96
2022-11-22T09:33:13.766Z,8616.96
2022-11-22T09:34:13.827Z,8616.96
2022-11-22T09:35:13.719Z,8616.96
2022-11-22T09:36:14.089Z,8616.96
2022-11-22T09:37:13.291Z,9400.32
2022-11-22T09:38:13.226Z,8616.96
2022-11-22T09:39:13.520Z,8616.96
2022-11-22T09:40:13.450Z,9400.32
2022-11-22T09:41:13.689Z,9400.32
2022-11-22T09:42:13.787Z,9400.32
2022-11-22T09:43:14.142Z,9400.32
2022-11-22T09:44:13.451Z,9400.32
2022-11-22T09:45:13.331Z,9400.32
2022-11-22T09:46:13.500Z,10183.68
2022-11-22T09:47:14.583Z,10183.68
2022-11-22T09:48:13.721Z,10967.04
2022-11-22T09:49:13.672Z,10183.68
2022-11-22T09:50:13.654Z,10183.68
2022-11-22T09:51:13.674Z,10183.68
2022-11-22T09:52:13.868Z,10183.68
2022-11-22T09:53:13.764Z,10967.04
2022-11-22T09:54:13.671Z,10967.04
2022-11-22T09:55:13.587Z,6266.88
2022-11-22T09:56:13.501Z,5091.84
2022-11-22T09:57:13.584Z,8616.96
2022-11-22T09:58:13.431Z,10967.04
2022-11-22T09:59:13.515Z,9400.32
2022-11-22T10:00:13.738Z,10183.68
2022-11-22T10:01:13.648Z,10967.04
2022-11-22T10:02:18.580Z,10967.04
2022-11-22T10:03:13.464Z,10967.04
2022-11-22T10:04:13.472Z,10967.04
2022-11-22T10:05:13.384Z,10183.68
2022-11-22T10:06:13.247Z,3916.80
2022-11-22T10:07:13.688Z,3916.80
2022-11-22T10:08:13.745Z,4700.16
2022-11-22T10:09:13.997Z,8616.96
2022-11-22T10:10:13.069Z,10183.68
2022-11-22T10:11:13.293Z,7050.24
2022-11-22T10:12:13.388Z,4308.48
2022-11-22T10:13:13.664Z,4308.48
2022-11-22T10:14:14.024Z,5091.84
2022-11-22T10:15:13.013Z,5875.20
2022-11-22T10:16:13.208Z,7050.24
2022-11-22T10:17:13.312Z,12533.76
2022-11-22T10:18:13.445Z,14100.48
2022-11-22T10:19:13.913Z,12533.76
2022-11-22T10:20:13.013Z,7050.24
2022-11-22T10:21:12.914Z,10183.68
2022-11-22T10:22:12.857Z,8616.96
2022-11-22T10:23:13.795Z,15667.20
2022-11-22T10:24:13.865Z,17233.92
2022-11-22T10:25:13.714Z,18800.64
2022-11-22T10:26:13.754Z,14100.48
2022-11-22T10:27:13.571Z,10967.04
2022-11-22T10:28:13.453Z,9400.32
2022-11-22T10:29:33.426Z,8616.96
2022-11-22T10:30:13.332Z,10183.68
2022-11-22T10:32:19.090Z,11750.40
2022-11-22T10:33:38.824Z,18800.64
2022-11-22T10:34:13.482Z,18800.64
2022-11-22T10:35:13.488Z,18800.64
2022-11-22T10:36:13.313Z,15667.20
2022-11-22T10:37:13.262Z,10967.04
2022-11-22T10:38:13.643Z,8616.96
2022-11-22T10:39:13.493Z,9400.32
2022-11-22T10:40:13.419Z,9400.32
2022-11-22T10:41:13.320Z,7050.24
2022-11-22T10:42:13.331Z,6266.88
2022-11-22T10:43:13.262Z,7050.24
2022-11-22T10:44:13.466Z,8616.96
2022-11-22T10:45:13.350Z,7833.60
2022-11-22T10:46:13.520Z,7050.24
2022-11-22T10:47:13.712Z,7050.24
2022-11-22T10:48:13.967Z,7050.24
2022-11-22T10:49:12.896Z,7050.24
2022-11-22T10:50:13.938Z,6266.88
2022-11-22T10:51:12.862Z,6266.88
2022-11-22T10:52:13.901Z,6266.88
2022-11-22T10:53:12.832Z,6266.88
2022-11-22T10:54:13.889Z,5875.20
2022-11-22T10:55:13.898Z,5483.52
2022-11-22T10:56:12.805Z,5875.20
2022-11-22T10:57:13.903Z,5483.52
2022-11-22T10:58:13.020Z,5091.84
2022-11-22T10:59:13.063Z,5483.52
2022-11-22T11:00:13.267Z,5091.84
2022-11-22T11:01:13.237Z,5483.52
2022-11-22T11:02:13.152Z,5483.52
2022-11-22T11:03:13.140Z,5091.84
2022-11-22T11:04:14.200Z,4700.16
2022-11-22T11:05:18.265Z,5091.84
2022-11-22T11:06:38.090Z,6266.88
2022-11-22T11:07:13.602Z,9400.32
2022-11-22T11:08:38.963Z,10183.68
2022-11-22T11:10:21.606Z,9400.32
2022-11-22T11:11:13.993Z,14100.48
2022-11-22T11:12:13.054Z,10967.04
2022-11-22T11:13:13.194Z,18800.64
2022-11-22T11:14:13.137Z,17233.92
2022-11-22T11:15:13.044Z,20367.36
2022-11-22T11:16:13.379Z,18800.64
2022-11-22T11:17:13.581Z,17233.92
2022-11-22T11:18:13.538Z,17233.92
2022-11-22T11:19:25.322Z,15667.20
2022-11-22T11:20:13.459Z,8616.96
2022-11-22T11:21:13.481Z,18800.64
2022-11-22T11:22:13.823Z,12533.76
2022-11-22T11:23:22.247Z,9400.32
2022-11-22T11:24:13.269Z,9400.32
2022-11-22T11:25:18.772Z,5875.20
2022-11-22T11:26:13.845Z,5483.52
2022-11-22T11:27:14.053Z,5875.20
2022-11-22T11:28:13.550Z,7833.60
2022-11-22T11:29:13.547Z,8616.96
2022-11-22T11:30:13.756Z,8616.96
2022-11-22T11:31:13.967Z,8616.96
2022-11-22T11:32:13.079Z,9400.32
2022-11-22T11:33:13.254Z,10183.68
2022-11-22T11:34:13.585Z,10183.68
2022-11-22T11:35:14.242Z,14100.48
2022-11-22T11:36:13.753Z,10967.04
2022-11-22T11:37:14.232Z,9400.32
2022-11-22T11:38:13.842Z,11750.40
2022-11-22T11:39:14.067Z,10183.68
2022-11-22T11:40:13.372Z,10183.68
2022-11-22T11:41:13.549Z,10183.68
2022-11-22T11:42:13.673Z,10183.68
2022-11-22T11:43:13.740Z,8616.96
2022-11-22T11:44:14.155Z,7833.60
2022-11-22T11:45:36.075Z,8616.96
2022-11-22T11:46:13.634Z,14100.48
2022-11-22T11:47:13.725Z,11750.40
2022-11-22T11:48:14.084Z,8616.96
2022-11-22T11:49:13.209Z,10967.04
2022-11-22T11:50:53.597Z,9400.32
2022-11-22T11:51:13.931Z,7833.60
2022-11-22T11:52:13.040Z,11750.40
2022-11-22T11:53:13.444Z,7050.24
2022-11-22T11:54:41.354Z,7833.60
2022-11-22T11:55:13.815Z,7050.24
2022-11-22T11:56:14.211Z,7833.60
2022-11-22T11:57:18.424Z,8616.96
2022-11-22T11:58:16.280Z,8616.96
2022-11-22T11:59:14.244Z,7050.24
2022-11-22T12:00:13.432Z,10183.68
2022-11-22T12:01:13.296Z,8616.96
2022-11-22T12:02:13.536Z,6266.88
2022-11-22T12:03:13.519Z,8616.96
2022-11-22T12:04:50.113Z,17233.92
2022-11-22T12:05:13.102Z,18800.64
2022-11-22T12:06:13.056Z,7833.60
2022-11-22T12:07:26.152Z,7050.24
2022-11-22T12:08:18.256Z,6266.88
2022-11-22T12:09:27.049Z,6266.88
2022-11-22T12:10:13.603Z,6266.88
2022-11-22T12:11:19.005Z,7833.60
2022-11-22T12:12:13.737Z,10183.68
2022-11-22T12:13:13.839Z,7833.60
2022-11-22T12:14:20.296Z,6266.88
2022-11-22T12:15:19.002Z,7050.24
2022-11-22T12:16:14.565Z,11750.40
2022-11-22T12:17:18.875Z,7833.60
2022-11-22T12:18:19.106Z,7833.60
2022-11-22T12:19:23.184Z,7050.24
2022-11-22T12:20:14.156Z,7050.24
2022-11-22T12:21:13.433Z,8616.96
2022-11-22T12:22:24.232Z,8616.96
2022-11-22T12:23:13.696Z,8616.96
2022-11-22T12:24:41.300Z,10183.68
2022-11-22T12:25:31.419Z,10183.68
2022-11-22T12:26:13.799Z,10967.04
2022-11-22T12:27:51.858Z,10183.68
2022-11-22T12:28:13.570Z,10967.04
2022-11-22T12:29:13.665Z,14100.48
2022-11-22T12:30:39.255Z,10967.04
2022-11-22T12:31:15.520Z,10967.04
2022-11-22T12:32:14.196Z,12533.76
2022-11-22T12:33:13.287Z,12533.76
2022-11-22T12:34:13.541Z,12533.76
2022-11-22T12:35:13.633Z,17233.92
2022-11-22T12:36:13.755Z,17233.92
2022-11-22T12:37:18.129Z,15667.20
2022-11-22T12:38:13.049Z,12533.76
2022-11-22T12:39:13.389Z,14100.48
2022-11-22T12:40:25.194Z,11750.40
2022-11-22T12:41:13.062Z,12533.76
2022-11-22T12:42:28.723Z,12533.76
2022-11-22T12:43:13.953Z,10967.04
2022-11-22T12:44:13.008Z,10967.04
2022-11-22T12:45:13.105Z,8616.96